Aviation Digital Data Service (ADDS)

Output produced by TAFs form (1131 UTC 19 January 2018)
found at http://www.aviationweather.gov/adds/tafs/
 
RJOB 191100Z VRB01KT 9000 FEW025 SCT050 04/02 Q1018
TAF RJOB 191108Z 1912/2018 32004KT 9000 FEW025 SCT045